neil on the web!

ADDS Results

1730 UTC 29 March 2020

EGJB 291720Z 05017G31KT 9999 VCSH FEW020CB 05/M00 Q1035
EGJB 291650Z 05018KT 9999 VCSH FEW020CB SCT027 06/M00 Q1035
EGJB 291620Z 04015G26KT 360V070 9999 VCSH FEW027 06/M00 Q1035
EGJB 291550Z 04017G31KT 010V070 9999 VCSH FEW022CB 06/00 Q1035
TAF EGJB 291656Z 2918/3003 04018G30KT 9999 FEW028 BKN043
PROB40
TEMPO 2918/3003 04028G40KT
PROB30
TEMPO 2918/3003 6000 SHRAGS BKN020CB
EGJJ 291720Z 04022G37KT 010V070 9999 FEW034 06/M02 Q1034
EGJJ 291650Z 04020G35KT 010V080 9999 FEW027 07/M00 Q1034
EGJJ 291620Z 04020G35KT 9999 VCSH SCT034 07/M01 Q1034
EGJJ 291550Z 04020G34KT 010V080 9999 FEW028 07/M01 Q1034
TAF EGJJ 291656Z 2918/3003 04018G30KT 9999 FEW028 BKN043
PROB40
TEMPO 2918/3003 04028G40KT
PROB30
TEMPO 2918/3003 6000 SHRAGS BKN020CB
EGKK 291720Z 03017KT CAVOK 05/M05 Q1037
EGKK 291650Z 04018KT 9999 SCT047CB 06/M04 Q1036
EGKK 291620Z 02018KT 9999 SCT045 06/M02 Q1037
EGKK 291550Z 04019KT 9999 -RA FEW034 SCT041 05/M00 Q1037
TAF EGKK 291656Z 2918/3024 03015G25KT 9999 FEW030
BECMG 2918/2921 01008KT
PROB40
TEMPO 2918/3006 6000 SHRA
TEMPO 3006/3018 6000 SHRA BKN012
TEMPO 3010/3018 03015G25KT
EGSS 291720Z AUTO 03017KT 9999 FEW049 05/M06 Q1039
EGSS 291650Z AUTO 02017KT 9999 BKN048 05/M05 Q1038
EGSS 291620Z AUTO 02016KT 9999 NCD 06/M05 Q1038
EGSS 291550Z AUTO 02019G29KT 9999 NCD 06/M05 Q1038
TAF EGSS 291701Z 2918/3024 02018G28KT 9999 SCT035
BECMG 2918/2921 01008KT
TEMPO 2918/3009 8000 -SHRA
PROB30
TEMPO 2921/3009 4000 SHRASN BKN008
BECMG 3009/3012 01015G25KT
TEMPO 3009/3021 6000 SHRA BKN010
BECMG 3018/3021 01008KT
EGGW 291720Z AUTO 02020KT 9999 BKN047 04/M05 Q1039
EGGW 291650Z AUTO 03018G28KT 9999 BKN049 05/M05 Q1038
EGGW 291620Z AUTO 03019KT 9999 BKN049 05/M05 Q1038
EGGW 291550Z AUTO 02020KT 9999 BKN043 05/M05 Q1038
TAF EGGW 291701Z 2918/3018 02020G30KT 9999 SCT035
BECMG 2918/2921 01012KT
TEMPO 2918/3009 8000 -SHRA
PROB30
TEMPO 2921/3009 4000 SHRASN BKN008
BECMG 3009/3012 01016G26KT
TEMPO 3009/3018 6000 SHRA BKN010
EGSH 291720Z 02018KT 350V050 9999 VCSH SCT043 05/M04 Q1040
EGSH 291650Z 02019KT 9999 VCSH SCT043 05/M05 Q1040 NOSIG
EGSH 291620Z 02017KT 350V050 9999 VCSH SCT043 05/M04 Q1040 NOSIG
EGSH 291550Z 02015G26KT 340V070 9999 VCSH SCT043 06/M04 Q1040 NOSIG
TAF EGSH 291659Z 2918/2924 02012KT 9999 SCT040
TEMPO 2918/2921 02015G25KT
PROB30
TEMPO 2918/2924 7000 SHRA
EGLC 291720Z AUTO VRB13G26KT 9999 NCD 07/M07 Q1038
EGLC 291650Z AUTO 06013G24KT 350V100 9999 NCD 07/M07 Q1038
EGLC 291620Z AUTO VRB10G20KT 9999 NCD 07/M07 Q1038
EGLC 291550Z AUTO 06019KT 020V080 9999 NCD 07/M06 Q1038
EGMC 291720Z 02016KT 9999 FEW049 05/M05 Q1038
EGMC 291650Z 01016KT 9999 SCT049 05/M04 Q1037
EGMC 291620Z 02016G29KT 9999 SCT048 06/M04 Q1037
EGMC 291550Z 02016G26KT 9999 FEW041 06/M02 Q1037
TAF EGMC 291657Z 2918/3003 03018G32KT 9999 SCT030
TEMPO 2918/2921 6000 SHRA
BECMG 3000/3003 01012KT
EGLL 291720Z AUTO 02011G22KT 310V060 9999 NCD 06/M07 Q1039 NOSIG
EGLL 291650Z AUTO 03012G25KT 350V070 9999 NCD 07/M07 Q1038 NOSIG
EGLL 291620Z AUTO 03014G28KT 350V060 9999 NCD 07/M08 Q1038
EGLL 291550Z AUTO 03012KT 350V070 9999 NCD 07/M06 Q1038
TAF EGLL 291659Z 2918/3024 03020G32KT 9999 SCT030
BECMG 2918/2921 02010KT
PROB30
TEMPO 3008/3021 6000 SHRA BKN014
PROB30
TEMPO 3012/3017 03015G25KT
TAF EGHI 291354Z 2915/2921 03020G32KT 9999 SCT030
BECMG 2917/2920 03012KT
EGHH 291720Z 03019G34KT CAVOK 07/M06 Q1037
EGHH 291650Z 04021G31KT CAVOK 08/M06 Q1037
EGHH 291620Z 05019G30KT CAVOK 08/M05 Q1037
EGHH 291550Z 04020G30KT CAVOK 09/M05 Q1037
TAF EGHH 291650Z 2918/3003 04016G26KT 9999 SCT045
BECMG 2918/2921 03012KT
EGCC 291720Z AUTO 03015KT 9999 FEW045 05/M03 Q1044
EGCC 291650Z AUTO 04014KT 9999 OVC040 05/M02 Q1044 NOSIG
EGCC 291620Z AUTO 04016KT 9999 BKN047 06/M03 Q1043 NOSIG
EGCC 291550Z AUTO 03016KT 9999 FEW038 SCT045 06/M03 Q1043 NOSIG
TAF EGCC 291657Z 2918/3024 03012KT 9999 SCT040
BECMG 2921/2924 30005KT
BECMG 3009/3012 02012KT
PROB30
TEMPO 3015/3024 7000 SHRA
EGNX 291650Z 02013KT 350V050 9999 FEW041 05/M04 Q1041
EGNX 291620Z 02012KT 350V060 9999 FEW038 06/M04 Q1042
EGNX 291550Z 03016KT 350V050 9999 SCT042 05/M03 Q1042
TAF EGNX 291654Z 2918/3018 03015KT 9999 SCT025
BECMG 2921/2924 33005KT
PROB30
TEMPO 3005/3009 9000 -RA BKN012
BECMG 3009/3012 01015KT
PROB30
TEMPO 3009/3018 7000 SHRA BKN014
EGGP 291720Z 02014KT 9999 SCT038 06/M03 Q1044
EGGP 291650Z 01014KT 9999 SCT038 07/M02 Q1044
EGGP 291620Z 02015KT 9999 SCT038 07/M02 Q1044
EGGP 291550Z 03014KT 010V070 9999 SCT038 07/M02 Q1044
TAF EGGP 291657Z 2918/3018 03012KT 9999 SCT040
BECMG 2921/2924 33005KT
TAF EGNM 291100Z 2912/2916 02012KT 9999 SCT030
TEMPO 2912/2916 03018G28KT
PROB30
TEMPO 2912/2916 6000 -SHRASN BKN014
EGBB 291720Z 02014KT CAVOK 05/M04 Q1041
EGBB 291650Z 04017KT 9999 SCT044 06/M04 Q1041
EGBB 291620Z 03014KT 9999 SCT044 06/M04 Q1041
EGBB 291550Z 02017KT 9999 FEW048 07/M04 Q1041
TAF EGBB 291654Z 2918/3018 03014KT 9999 SCT030
BECMG 2921/2924 34004KT
PROB30
TEMPO 3007/3010 9000 -RA BKN012
BECMG 3009/3012 02014KT
PROB30
TEMPO 3010/3018 7000 SHRA BKN014
EGGD 291720Z AUTO 03017KT 9999 NCD 06/M06 Q1039
EGGD 291650Z AUTO 03020KT 9999 NCD 07/M06 Q1039
EGGD 291620Z AUTO 03021KT 9999 NCD 07/M06 Q1039
EGGD 291550Z AUTO 04018KT 9999 NCD 07/M06 Q1038
TAF EGGD 291701Z 2918/3018 04020G30KT 9999 SCT035
BECMG 2918/2921 03012KT
TEMPO 3000/3006 VRB04KT
BECMG 3009/3012 02016G26KT
PROB30
TEMPO 3009/3018 6000 SHRA BKN012
EGFF 291720Z AUTO 05018KT 9999 NCD 08/M04 Q1040
EGFF 291650Z AUTO 05020KT 9999 NCD 08/M06 Q1040
EGFF 291620Z AUTO 05018KT 020V080 9999 NCD 09/M06 Q1039
EGFF 291550Z AUTO 04022KT 9999 NCD 09/M06 Q1039
TAF EGFF 291701Z 2918/3018 05018G28KT 9999 SCT035
BECMG 2918/2921 03008KT
BECMG 3009/3012 03016G26KT
PROB30
TEMPO 3009/3018 6000 SHRA BKN012
EGTE 291720Z 03016KT CAVOK 08/M04 Q1038
EGTE 291650Z 03018KT CAVOK 10/M04 Q1038
EGTE 291620Z 02018KT 340V060 CAVOK 08/M03 Q1038
EGTE 291550Z 02018G28KT 350V050 CAVOK 10/M03 Q1038
TAF EGTE 291653Z 2918/3003 03012KT 9999 SCT040
TEMPO 2918/2920 03016G26KT
EGPF 291720Z AUTO 28010KT 9999 NCD 08/M02 Q1046
EGPF 291650Z AUTO 35007KT 280V020 9999 NCD 09/M03 Q1046
EGPF 291620Z AUTO 31008KT 9999 NCD 08/M03 Q1046
EGPF 291550Z AUTO 33007KT 290V360 9999 NCD 08/M04 Q1047
TAF EGPF 291655Z 2918/3018 33007KT 9999 SCT045
EGPH 291720Z 31004KT 250V360 CAVOK 08/M02 Q1045
EGPH 291650Z 34006KT 300V020 CAVOK 08/M02 Q1045
EGPH 291620Z 31004KT 230V010 CAVOK 08/M03 Q1045
EGPH 291550Z VRB05KT CAVOK 08/M04 Q1045
TAF EGPH 291655Z 2918/3018 32007KT 9999 SCT045
EGPK 291720Z 29013KT 9999 FEW047 07/M00 Q1046
EGPK 291650Z 29015KT 9999 FEW047 07/M01 Q1047
EGPK 291620Z 28014KT 9999 FEW047 08/M02 Q1047
EGPK 291550Z 28012KT 9999 FEW047 07/M02 Q1047
TAF EGPK 291655Z 2918/3018 30009KT 9999 SCT045
EHAM 291725Z 03020G31KT 350V060 9999 FEW045 04/M07 Q1035 NOSIG
EHAM 291655Z 03021KT 330V080 CAVOK 05/M08 Q1034 NOSIG
EHAM 291625Z 04021G31KT 010V080 CAVOK 05/M08 Q1034 NOSIG
EHAM 291555Z 03023G33KT 360V060 CAVOK 05/M09 Q1034 NOSIG
TAF EHAM 291649Z 2918/3024 03021G33KT 9999 SCT040
BECMG 2918/2920 03015KT
BECMG 2920/2923 36007KT CAVOK
TEMPO 3007/3018 7000 -SHRAGS -RA SCT020CB BKN030
PROB30
TEMPO 3007/3009 4500 -SHRASN
BECMG 3008/3011 33010KT SCT030
BECMG 3018/3021 04008KT CAVOK
LFLS 291700Z AUTO 31008KT 260V350 9999 OVC013 03/00 Q1019 TEMPO 4000 -RA
LFLS 291630Z AUTO 32007KT 270V020 9999 OVC014 03/01 Q1018 TEMPO 4000 -RA
LFLS 291600Z AUTO 33011KT 9999 OVC017 04/01 Q1018 TEMPO 4000 -RA BKN013
TAF LFLS 291400Z 2915/3015 34010KT 9999 BKN030
TEMPO 2915/3007 4000 -RA BKN013
LFLL 291700Z AUTO 35022KT 9999 OVC016 04/00 Q1019 TEMPO 4000 RA BECMG 35015G25KT
LFLL 291630Z AUTO 34019KT 9999 OVC015 04/00 Q1019 TEMPO 4000 RA BECMG 35015G25KT
LFLL 291600Z AUTO 35022KT 9999 OVC016 04/00 Q1019 TEMPO 4000 RA BECMG 35015G25KT
TAF LFLL 291700Z 2918/3024 35015G25KT 9999 BKN030
PROB40
TEMPO 2918/2922 4000 RA BKN010
PROB30
TEMPO 2922/3006 -RA
BECMG 2922/2924 36012KT
BECMG 3009/3011 BKN050
LFLC 291700Z AUTO 32005KT 280V350 9000 -SNRA BKN007 OVC011 01/01 Q1022 TEMPO
36015G25KT 2000 SN OVC003
LFLC 291630Z AUTO 32006KT 290V350 7000 -SN BKN007 OVC011 01/01 Q1022 TEMPO
36015G25KT 2000 SN OVC003
LFLC 291600Z AUTO 33005KT 300V360 3300 -SN BR OVC006 01/01 Q1022 TEMPO
36015G25KT 2000 SN OVC003
TAF LFLC 291400Z 2915/3015 36012KT 9999 BKN025
TEMPO 2915/3007 36015G25KT 4000 RASN BKN012
PROB40
TEMPO 2915/3007 2000 SN OVC003
TEMPO 3012/3015 02015G25KT
LFRD 291700Z AUTO 04023G37KT 9999 SCT031 BKN043 07/M01 Q1032
LFRD 291630Z AUTO 04018G30KT 010V080 9999 FEW025 SCT033 07/02 Q1032
LFRD 291600Z AUTO 05022G38KT 020V080 9999 FEW028 SCT033 BKN070 06/02 Q1032
LFRC 291700Z AUTO 03018G29KT 360V060 9999 SCT025 BKN032 BKN066 05/00 Q1035
LFRC 291630Z AUTO 04023G34KT 9999 FEW017/// SCT027/// BKN060/// ///TCU 05/M01
Q1034
LFRC 291600Z AUTO 04022G36KT 010V070 9999 SCT023 BKN030 BKN045 06/01 Q1034
VHHH 291700Z 09018KT 9999 FEW009 SCT022 21/19 Q1012 NOSIG
VHHH 291630Z 09018KT 9999 FEW009 SCT022 22/19 Q1012 NOSIG
VHHH 291600Z 08019KT 9999 FEW009 SCT022 22/19 Q1011 NOSIG
TAF VHHH 291700Z 2918/3024 09015KT 9000 FEW010 SCT030 TX25/3006Z TN21/2923Z
TN22/3023Z
TEMPO 2918/2921 09022G32KT